METAR Data
IDs: Format: Raw Decoded Include TAF

Data at: 1948 UTC 13 Nov 2019

Region: TOP
KATL 131852Z 10008KT 10SM FEW250 07/M09 A3027 RMK AO2 SLP258 T00721089

KBOS 131854Z 31015G23KT 10SM FEW045 00/M17 A3024 RMK AO2 SLP238 T00001167

KBWI 131854Z VRB05KT 10SM FEW060 FEW250 03/M11 A3038 RMK AO2 SLP290 T00281106

KCLE 131851Z 18008KT 10SM BKN130 BKN200 M04/M11 A3035 RMK AO2 SLP289 T10391111

KCLT 131852Z 03008KT 10SM FEW250 05/M11 A3038 RMK AO2 SLP291 T00501106

KCVG 131852Z 15004KT 10SM BKN250 M03/M09 A3030 RMK AO2 SLP273 T10281094

KDCA 131852Z 36005KT 10SM FEW250 03/M11 A3042 RMK AO2 SLP300 T00331111

KDEN 131853Z 06014KT 10SM FEW100 FEW150 SCT220 12/M06 A3003 RMK AO2 SLP138 T01171056

KDFW 131853Z 16007KT 10SM BKN300 07/M08 A3014 RMK AO2 SLP209 T00721078

KDTW 131853Z 20009KT 10SM FEW030 BKN110 OVC130 M06/M12 A3031 RMK AO2 SLP275 T10611117

KEWR 131851Z 33018G22KT 10SM FEW045 FEW250 02/M16 A3034 RMK AO2 SLP274 T00171156

KFLL 131910Z 06006KT 5SM R10L/2600VP6000FT +RA BR FEW010 BKN015CB OVC022 23/22 A2997 RMK AO2 CB OHD-NE-SE-S MOV S P0008 T02280217

KIAD 131852Z 31006KT 10SM FEW250 02/M13 A3039 RMK AO2 SLP296 T00221133

KIAH 131853Z 00000KT 10SM FEW110 BKN150 OVC250 06/M06 A3025 RMK AO2 PRESFR SLP244 T00611056

KJFK 131851Z 34013G20KT 10SM FEW060 FEW250 02/M14 A3034 RMK AO2 PK WND 31027/1838 SLP274 T00171144 $

KLAS 131856Z 03004KT 10SM SCT250 21/M06 A3005 RMK AO2 SLP165 T02061056

KLAX 131853Z 26005KT 4SM HZ FEW018 SCT140 BKN160 19/13 A3003 RMK AO2 SLP167 T01890133

KLGA 131851Z 32012G19KT 10SM FEW040 FEW250 01/M16 A3033 RMK AO2 SLP272 T00111161

KMCO 131853Z 03014G23KT 10SM BKN026 OVC034 20/13 A3010 RMK AO2 SLP189 BKN V SCT T02000133

KMDW 131853Z 19013G24KT 10SM SCT130 OVC170 M05/M14 A3011 RMK AO2 PK WND 18028/1817 SLP215 T10501144

KMEM 131854Z 12005KT 10SM CLR 04/M11 A3026 RMK AO2 SLP250 T00441111 $

KMIA 131853Z 03012G25KT 10SM FEW025 BKN038 BKN060 BKN250 27/19 A2997 RMK AO2 SLP148 CB DSNT NE-SE MOV S T02720189

KMSP 131936Z 00000KT 1 1/2SM -SN BR BKN011 OVC034 M03/M06 A2992 RMK AO2 P0000 T10331056

KORD 131851Z 19013G24KT 10SM OVC140 M06/M14 A3009 RMK AO2 PK WND 18027/1840 SLP202 T10561144

KPDX 131853Z 33004KT 6SM BR OVC005 09/07 A3011 RMK AO2 SLP194 T00890072

KPHL 131854Z 31012G16KT 280V340 10SM FEW055 SCT250 01/M13 A3037 RMK AO2 SLP282 T00111133

KPHX 131851Z VRB03KT 10SM CLR 22/01 A3001 RMK AO2 SLP149 T02170006

KPIT 131851Z 21003KT 10SM BKN150 OVC220 M04/M13 A3032 RMK AO2 SLP295 T10391128

KSAN 131851Z 30007KT 4SM HZ FEW009 BKN200 19/14 A3003 RMK AO2 SLP169 T01890144

KSEA 131941Z 01010KT 10SM BKN008 BKN200 12/08 A3013 RMK AO2 T01170083

KSFO 131856Z 34003KT 9SM BKN200 16/10 A3002 RMK AO2 SLP165 T01560100

KSLC 131854Z 00000KT 10SM FEW065 FEW080 SCT220 13/M04 A3015 RMK AO2 SLP197 ACSL DSNT SE T01331039

KSTL 131851Z 18009G16KT 10SM FEW150 BKN250 01/M11 A3018 RMK AO2 SLP233 T00061111

KTPA 131853Z 05011G18KT 10SM BKN029 OVC045 20/12 A3009 RMK AO2 SLP188 T02000117